Terminal Aerodrome Forecast
Issued by NWS

Home | Current Version | Previous Version | Text Only | Print | Product List | Glossary On
Versions: 1 2 3 4 5 6 7 8 9 10 11 12 13
000
FTUS43 KOAX 311728
TAFBFF
TAF
KBFF 311728Z 3118/0118 30010G16KT P6SM SCT100
     FM010000 30011KT P6SM SCT200
     FM010500 35004KT P6SM SKC
     FM011700 22004KT P6SM FEW250=

USA.gov is the U.S. government's official web portal to all federal, state and local government web resources and services.